sensor_id;sensor_type;location;lat;lon;timestamp;temperature;humidity
4556;DHT22;2290;48.674;9.018;2023-12-28T00:00:42;8.60;99.90
4556;DHT22;2290;48.674;9.018;2023-12-28T00:03:08;8.50;99.90
4556;DHT22;2290;48.674;9.018;2023-12-28T00:05:33;8.50;99.90
4556;DHT22;2290;48.674;9.018;2023-12-28T00:07:59;8.50;99.90
4556;DHT22;2290;48.674;9.018;2023-12-28T00:10:26;8.40;99.90
4556;DHT22;2290;48.674;9.018;2023-12-28T00:12:51;8.30;99.90
4556;DHT22;2290;48.674;9.018;2023-12-28T00:15:17;8.40;99.90
4556;DHT22;2290;48.674;9.018;2023-12-28T00:17:43;8.30;99.90
4556;DHT22;2290;48.674;9.018;2023-12-28T00:20:09;8.40;99.90
4556;DHT22;2290;48.674;9.018;2023-12-28T00:22:34;8.40;99.90
4556;DHT22;2290;48.674;9.018;2023-12-28T00:25:04;8.50;99.90
4556;DHT22;2290;48.674;9.018;2023-12-28T00:27:30;8.50;99.90
4556;DHT22;2290;48.674;9.018;2023-12-28T00:29:56;8.50;99.90
4556;DHT22;2290;48.674;9.018;2023-12-28T00:32:21;8.50;99.90
4556;DHT22;2290;48.674;9.018;2023-12-28T00:34:47;8.50;99.90
4556;DHT22;2290;48.674;9.018;2023-12-28T00:37:12;8.60;99.90
4556;DHT22;2290;48.674;9.018;2023-12-28T00:39:38;8.50;99.90
4556;DHT22;2290;48.674;9.018;2023-12-28T00:42:04;8.50;99.90
4556;DHT22;2290;48.674;9.018;2023-12-28T00:44:30;8.40;99.90
4556;DHT22;2290;48.674;9.018;2023-12-28T00:46:56;8.40;99.90
4556;DHT22;2290;48.674;9.018;2023-12-28T00:49:21;8.40;99.90
4556;DHT22;2290;48.674;9.018;2023-12-28T00:51:47;8.30;99.90
4556;DHT22;2290;48.674;9.018;2023-12-28T00:54:12;8.30;99.90
4556;DHT22;2290;48.674;9.018;2023-12-28T00:56:38;8.30;99.90
4556;DHT22;2290;48.674;9.018;2023-12-28T00:59:04;8.20;99.90
4556;DHT22;2290;48.674;9.018;2023-12-28T01:01:29;8.20;99.90
4556;DHT22;2290;48.674;9.018;2023-12-28T01:03:58;8.20;99.90
4556;DHT22;2290;48.674;9.018;2023-12-28T01:06:23;8.10;99.90
4556;DHT22;2290;48.674;9.018;2023-12-28T01:08:54;8.20;99.90
4556;DHT22;2290;48.674;9.018;2023-12-28T01:11:20;8.20;99.90
4556;DHT22;2290;48.674;9.018;2023-12-28T01:13:46;8.20;99.90
4556;DHT22;2290;48.674;9.018;2023-12-28T01:16:14;8.30;99.90
4556;DHT22;2290;48.674;9.018;2023-12-28T01:18:40;8.40;99.90
4556;DHT22;2290;48.674;9.018;2023-12-28T01:21:06;8.50;99.90
4556;DHT22;2290;48.674;9.018;2023-12-28T01:23:32;8.40;99.90
4556;DHT22;2290;48.674;9.018;2023-12-28T01:25:59;8.40;99.90
4556;DHT22;2290;48.674;9.018;2023-12-28T01:28:25;8.50;99.90
4556;DHT22;2290;48.674;9.018;2023-12-28T01:30:52;8.50;99.90
4556;DHT22;2290;48.674;9.018;2023-12-28T01:33:18;8.60;99.90
4556;DHT22;2290;48.674;9.018;2023-12-28T01:35:44;8.50;99.90
4556;DHT22;2290;48.674;9.018;2023-12-28T01:38:10;8.50;99.90
4556;DHT22;2290;48.674;9.018;2023-12-28T01:40:35;8.40;99.90
4556;DHT22;2290;48.674;9.018;2023-12-28T01:43:01;8.50;99.90
4556;DHT22;2290;48.674;9.018;2023-12-28T01:45:28;8.40;99.90
4556;DHT22;2290;48.674;9.018;2023-12-28T01:47:54;8.50;99.90
4556;DHT22;2290;48.674;9.018;2023-12-28T01:50:23;8.40;99.90
4556;DHT22;2290;48.674;9.018;2023-12-28T01:52:51;8.40;99.90
4556;DHT22;2290;48.674;9.018;2023-12-28T01:55:17;8.40;99.90
4556;DHT22;2290;48.674;9.018;2023-12-28T01:57:44;8.50;99.90
4556;DHT22;2290;48.674;9.018;2023-12-28T02:00:11;8.60;99.90
4556;DHT22;2290;48.674;9.018;2023-12-28T02:02:37;8.50;99.90
4556;DHT22;2290;48.674;9.018;2023-12-28T02:05:03;8.50;99.90
4556;DHT22;2290;48.674;9.018;2023-12-28T02:07:30;8.50;99.90
4556;DHT22;2290;48.674;9.018;2023-12-28T02:09:57;8.50;99.90
4556;DHT22;2290;48.674;9.018;2023-12-28T02:12:23;8.40;99.90
4556;DHT22;2290;48.674;9.018;2023-12-28T02:14:48;8.50;99.90
4556;DHT22;2290;48.674;9.018;2023-12-28T02:17:23;8.50;99.90
4556;DHT22;2290;48.674;9.018;2023-12-28T02:19:52;8.60;99.90
4556;DHT22;2290;48.674;9.018;2023-12-28T02:22:18;8.60;99.90
4556;DHT22;2290;48.674;9.018;2023-12-28T02:25:08;8.80;99.90
4556;DHT22;2290;48.674;9.018;2023-12-28T02:27:45;8.80;99.90
4556;DHT22;2290;48.674;9.018;2023-12-28T02:30:16;8.80;99.90
4556;DHT22;2290;48.674;9.018;2023-12-28T02:35:41;8.80;99.90
4556;DHT22;2290;48.674;9.018;2023-12-28T02:38:09;8.80;99.90
4556;DHT22;2290;48.674;9.018;2023-12-28T02:40:40;8.80;99.90
4556;DHT22;2290;48.674;9.018;2023-12-28T02:43:07;8.90;99.90
4556;DHT22;2290;48.674;9.018;2023-12-28T02:45:33;8.90;99.60
4556;DHT22;2290;48.674;9.018;2023-12-28T02:47:59;8.90;99.70
4556;DHT22;2290;48.674;9.018;2023-12-28T02:50:24;9.00;99.50
4556;DHT22;2290;48.674;9.018;2023-12-28T02:52:50;9.10;99.50
4556;DHT22;2290;48.674;9.018;2023-12-28T02:55:16;9.00;99.90
4556;DHT22;2290;48.674;9.018;2023-12-28T02:57:44;9.10;99.40
4556;DHT22;2290;48.674;9.018;2023-12-28T03:00:10;9.20;99.20
4556;DHT22;2290;48.674;9.018;2023-12-28T03:02:39;9.20;99.20
4556;DHT22;2290;48.674;9.018;2023-12-28T03:05:05;9.10;99.30
4556;DHT22;2290;48.674;9.018;2023-12-28T03:07:34;9.20;99.10
4556;DHT22;2290;48.674;9.018;2023-12-28T03:10:00;9.20;99.20
4556;DHT22;2290;48.674;9.018;2023-12-28T03:12:28;9.20;99.20
4556;DHT22;2290;48.674;9.018;2023-12-28T03:14:53;9.20;99.20
4556;DHT22;2290;48.674;9.018;2023-12-28T03:17:19;9.10;99.20
4556;DHT22;2290;48.674;9.018;2023-12-28T03:19:44;9.20;99.10
4556;DHT22;2290;48.674;9.018;2023-12-28T03:22:10;9.20;99.20
4556;DHT22;2290;48.674;9.018;2023-12-28T03:24:39;9.20;99.00
4556;DHT22;2290;48.674;9.018;2023-12-28T03:27:05;9.40;99.00
4556;DHT22;2290;48.674;9.018;2023-12-28T03:29:30;9.40;98.90
4556;DHT22;2290;48.674;9.018;2023-12-28T03:31:56;9.40;99.00
4556;DHT22;2290;48.674;9.018;2023-12-28T03:34:22;9.50;98.80
4556;DHT22;2290;48.674;9.018;2023-12-28T03:36:51;9.50;98.80
4556;DHT22;2290;48.674;9.018;2023-12-28T03:39:20;9.50;98.90
4556;DHT22;2290;48.674;9.018;2023-12-28T03:41:47;9.40;99.20
4556;DHT22;2290;48.674;9.018;2023-12-28T03:44:12;9.30;99.40
4556;DHT22;2290;48.674;9.018;2023-12-28T03:46:38;9.20;99.60
4556;DHT22;2290;48.674;9.018;2023-12-28T03:49:04;9.20;99.90
4556;DHT22;2290;48.674;9.018;2023-12-28T03:51:30;9.20;99.90
4556;DHT22;2290;48.674;9.018;2023-12-28T03:53:55;9.10;99.90
4556;DHT22;2290;48.674;9.018;2023-12-28T03:56:25;9.10;99.90
4556;DHT22;2290;48.674;9.018;2023-12-28T03:58:51;9.10;99.90
4556;DHT22;2290;48.674;9.018;2023-12-28T04:01:21;9.10;99.90
4556;DHT22;2290;48.674;9.018;2023-12-28T04:03:47;9.10;99.90
4556;DHT22;2290;48.674;9.018;2023-12-28T04:06:14;9.10;99.90
4556;DHT22;2290;48.674;9.018;2023-12-28T04:08:42;9.10;99.90
4556;DHT22;2290;48.674;9.018;2023-12-28T04:11:08;9.00;99.90
4556;DHT22;2290;48.674;9.018;2023-12-28T04:13:34;8.90;99.90
4556;DHT22;2290;48.674;9.018;2023-12-28T04:16:00;8.90;99.90
4556;DHT22;2290;48.674;9.018;2023-12-28T04:18:25;8.90;99.90
4556;DHT22;2290;48.674;9.018;2023-12-28T04:20:51;8.90;99.90
4556;DHT22;2290;48.674;9.018;2023-12-28T04:23:17;8.90;99.90
4556;DHT22;2290;48.674;9.018;2023-12-28T04:25:42;8.90;99.90
4556;DHT22;2290;48.674;9.018;2023-12-28T04:28:08;8.90;99.90
4556;DHT22;2290;48.674;9.018;2023-12-28T04:30:34;8.90;99.90
4556;DHT22;2290;48.674;9.018;2023-12-28T04:33:01;9.00;99.90
4556;DHT22;2290;48.674;9.018;2023-12-28T04:35:29;9.00;99.90
4556;DHT22;2290;48.674;9.018;2023-12-28T04:37:54;9.00;99.90
4556;DHT22;2290;48.674;9.018;2023-12-28T04:40:20;9.00;99.90
4556;DHT22;2290;48.674;9.018;2023-12-28T04:42:46;9.00;99.90
4556;DHT22;2290;48.674;9.018;2023-12-28T04:45:11;9.10;99.90
4556;DHT22;2290;48.674;9.018;2023-12-28T04:47:37;9.20;99.90
4556;DHT22;2290;48.674;9.018;2023-12-28T04:50:06;9.20;99.90
4556;DHT22;2290;48.674;9.018;2023-12-28T04:52:32;9.30;99.90
4556;DHT22;2290;48.674;9.018;2023-12-28T04:54:58;9.30;99.90
4556;DHT22;2290;48.674;9.018;2023-12-28T04:57:24;9.30;99.90
4556;DHT22;2290;48.674;9.018;2023-12-28T04:59:51;9.40;99.90
4556;DHT22;2290;48.674;9.018;2023-12-28T05:02:16;9.40;99.90
4556;DHT22;2290;48.674;9.018;2023-12-28T05:04:42;9.40;99.90
4556;DHT22;2290;48.674;9.018;2023-12-28T05:07:08;9.40;99.90
4556;DHT22;2290;48.674;9.018;2023-12-28T05:09:38;9.30;99.90
4556;DHT22;2290;48.674;9.018;2023-12-28T05:26:24;9.30;99.90
4556;DHT22;2290;48.674;9.018;2023-12-28T05:28:49;9.30;99.90
4556;DHT22;2290;48.674;9.018;2023-12-28T05:31:15;9.40;99.90
4556;DHT22;2290;48.674;9.018;2023-12-28T05:33:41;9.40;99.90
4556;DHT22;2290;48.674;9.018;2023-12-28T05:36:06;9.40;99.90
4556;DHT22;2290;48.674;9.018;2023-12-28T05:38:32;9.50;99.90
4556;DHT22;2290;48.674;9.018;2023-12-28T05:40:59;9.50;99.90
4556;DHT22;2290;48.674;9.018;2023-12-28T05:43:25;9.50;99.90
4556;DHT22;2290;48.674;9.018;2023-12-28T05:45:50;9.50;99.90
4556;DHT22;2290;48.674;9.018;2023-12-28T05:48:16;9.40;99.90
4556;DHT22;2290;48.674;9.018;2023-12-28T05:50:41;9.40;99.90
4556;DHT22;2290;48.674;9.018;2023-12-28T05:53:07;9.30;99.90
4556;DHT22;2290;48.674;9.018;2023-12-28T05:55:32;9.30;99.90
4556;DHT22;2290;48.674;9.018;2023-12-28T05:57:58;9.30;99.90
4556;DHT22;2290;48.674;9.018;2023-12-28T06:00:23;9.30;99.90
4556;DHT22;2290;48.674;9.018;2023-12-28T06:02:51;9.30;99.90
4556;DHT22;2290;48.674;9.018;2023-12-28T06:05:17;9.40;99.90
4556;DHT22;2290;48.674;9.018;2023-12-28T06:07:43;9.30;99.90
4556;DHT22;2290;48.674;9.018;2023-12-28T06:10:09;9.40;99.90
4556;DHT22;2290;48.674;9.018;2023-12-28T06:12:35;9.50;99.90
4556;DHT22;2290;48.674;9.018;2023-12-28T06:15:01;9.70;99.90
4556;DHT22;2290;48.674;9.018;2023-12-28T06:17:28;9.70;99.90
4556;DHT22;2290;48.674;9.018;2023-12-28T06:19:53;9.80;99.90
4556;DHT22;2290;48.674;9.018;2023-12-28T06:22:19;9.90;99.90
4556;DHT22;2290;48.674;9.018;2023-12-28T06:24:45;9.90;99.90
4556;DHT22;2290;48.674;9.018;2023-12-28T06:27:11;9.90;99.90
4556;DHT22;2290;48.674;9.018;2023-12-28T06:29:36;9.90;99.90
4556;DHT22;2290;48.674;9.018;2023-12-28T06:32:02;10.00;99.90
4556;DHT22;2290;48.674;9.018;2023-12-28T06:34:28;10.00;99.90
4556;DHT22;2290;48.674;9.018;2023-12-28T06:36:53;10.00;99.90
4556;DHT22;2290;48.674;9.018;2023-12-28T06:39:19;9.90;99.90
4556;DHT22;2290;48.674;9.018;2023-12-28T06:41:48;10.00;99.90
4556;DHT22;2290;48.674;9.018;2023-12-28T06:44:14;10.00;99.90
4556;DHT22;2290;48.674;9.018;2023-12-28T06:46:40;10.00;99.90
4556;DHT22;2290;48.674;9.018;2023-12-28T06:49:06;10.00;99.90
4556;DHT22;2290;48.674;9.018;2023-12-28T06:51:32;10.00;99.90
4556;DHT22;2290;48.674;9.018;2023-12-28T06:53:58;10.00;99.90
4556;DHT22;2290;48.674;9.018;2023-12-28T06:56:24;10.00;99.90
4556;DHT22;2290;48.674;9.018;2023-12-28T06:58:50;10.00;99.90
4556;DHT22;2290;48.674;9.018;2023-12-28T07:01:16;10.00;99.90
4556;DHT22;2290;48.674;9.018;2023-12-28T07:03:41;10.10;99.90
4556;DHT22;2290;48.674;9.018;2023-12-28T07:06:07;10.10;99.90
4556;DHT22;2290;48.674;9.018;2023-12-28T07:08:35;10.10;99.90
4556;DHT22;2290;48.674;9.018;2023-12-28T07:11:01;10.10;99.90
4556;DHT22;2290;48.674;9.018;2023-12-28T07:13:27;10.20;99.90
4556;DHT22;2290;48.674;9.018;2023-12-28T07:15:53;10.10;99.90
4556;DHT22;2290;48.674;9.018;2023-12-28T07:18:19;10.20;99.90
4556;DHT22;2290;48.674;9.018;2023-12-28T07:20:45;10.20;99.90
4556;DHT22;2290;48.674;9.018;2023-12-28T07:23:12;10.30;99.90
4556;DHT22;2290;48.674;9.018;2023-12-28T07:25:38;10.30;99.90
4556;DHT22;2290;48.674;9.018;2023-12-28T07:28:04;10.30;99.90
4556;DHT22;2290;48.674;9.018;2023-12-28T07:30:30;10.30;99.90
4556;DHT22;2290;48.674;9.018;2023-12-28T07:32:55;10.30;99.90
4556;DHT22;2290;48.674;9.018;2023-12-28T07:35:21;10.30;99.90
4556;DHT22;2290;48.674;9.018;2023-12-28T07:37:47;10.40;99.90
4556;DHT22;2290;48.674;9.018;2023-12-28T07:40:14;10.40;99.90
4556;DHT22;2290;48.674;9.018;2023-12-28T07:42:39;10.50;99.90
4556;DHT22;2290;48.674;9.018;2023-12-28T07:45:05;10.40;99.90
4556;DHT22;2290;48.674;9.018;2023-12-28T07:47:31;10.50;99.90
4556;DHT22;2290;48.674;9.018;2023-12-28T07:49:56;10.50;99.90
4556;DHT22;2290;48.674;9.018;2023-12-28T07:52:22;10.50;99.90
4556;DHT22;2290;48.674;9.018;2023-12-28T07:54:48;10.60;99.90
4556;DHT22;2290;48.674;9.018;2023-12-28T07:57:14;10.50;99.90
4556;DHT22;2290;48.674;9.018;2023-12-28T07:59:39;10.60;99.90
4556;DHT22;2290;48.674;9.018;2023-12-28T08:02:05;10.60;99.90
4556;DHT22;2290;48.674;9.018;2023-12-28T08:04:30;10.70;99.90
4556;DHT22;2290;48.674;9.018;2023-12-28T08:06:57;10.80;99.90
4556;DHT22;2290;48.674;9.018;2023-12-28T08:09:22;10.80;99.90
4556;DHT22;2290;48.674;9.018;2023-12-28T08:11:48;10.80;99.90
4556;DHT22;2290;48.674;9.018;2023-12-28T08:14:13;10.90;99.90
4556;DHT22;2290;48.674;9.018;2023-12-28T08:16:39;10.90;99.90
4556;DHT22;2290;48.674;9.018;2023-12-28T08:19:04;11.00;99.90
4556;DHT22;2290;48.674;9.018;2023-12-28T08:21:30;11.00;99.90
4556;DHT22;2290;48.674;9.018;2023-12-28T08:23:56;11.00;99.90
4556;DHT22;2290;48.674;9.018;2023-12-28T08:26:22;10.90;99.90
4556;DHT22;2290;48.674;9.018;2023-12-28T08:28:47;10.80;99.90
4556;DHT22;2290;48.674;9.018;2023-12-28T08:31:13;10.80;99.90
4556;DHT22;2290;48.674;9.018;2023-12-28T08:33:39;10.80;99.90
4556;DHT22;2290;48.674;9.018;2023-12-28T08:36:08;10.80;99.90
4556;DHT22;2290;48.674;9.018;2023-12-28T08:38:34;10.80;99.90
4556;DHT22;2290;48.674;9.018;2023-12-28T08:40:59;10.80;99.90
4556;DHT22;2290;48.674;9.018;2023-12-28T08:43:25;10.70;99.90
4556;DHT22;2290;48.674;9.018;2023-12-28T08:45:53;10.60;99.90
4556;DHT22;2290;48.674;9.018;2023-12-28T08:48:19;10.60;99.90
4556;DHT22;2290;48.674;9.018;2023-12-28T08:50:44;10.60;99.90
4556;DHT22;2290;48.674;9.018;2023-12-28T08:53:10;10.50;99.90
4556;DHT22;2290;48.674;9.018;2023-12-28T08:55:35;10.50;99.90
4556;DHT22;2290;48.674;9.018;2023-12-28T08:58:01;10.50;99.90
4556;DHT22;2290;48.674;9.018;2023-12-28T09:00:26;10.60;99.90
4556;DHT22;2290;48.674;9.018;2023-12-28T09:02:52;10.60;99.90
4556;DHT22;2290;48.674;9.018;2023-12-28T09:05:17;10.50;99.90
4556;DHT22;2290;48.674;9.018;2023-12-28T09:07:43;10.50;99.90
4556;DHT22;2290;48.674;9.018;2023-12-28T09:10:12;10.50;99.90
4556;DHT22;2290;48.674;9.018;2023-12-28T09:12:40;10.50;99.90
4556;DHT22;2290;48.674;9.018;2023-12-28T09:15:06;10.50;99.90
4556;DHT22;2290;48.674;9.018;2023-12-28T09:17:33;10.50;99.90
4556;DHT22;2290;48.674;9.018;2023-12-28T09:19:58;10.50;99.90
4556;DHT22;2290;48.674;9.018;2023-12-28T09:22:25;10.50;99.90
4556;DHT22;2290;48.674;9.018;2023-12-28T09:24:51;10.50;99.90
4556;DHT22;2290;48.674;9.018;2023-12-28T09:27:16;10.50;99.90
4556;DHT22;2290;48.674;9.018;2023-12-28T09:29:42;10.50;99.90
4556;DHT22;2290;48.674;9.018;2023-12-28T09:32:07;10.50;99.90
4556;DHT22;2290;48.674;9.018;2023-12-28T09:34:33;10.50;99.90
4556;DHT22;2290;48.674;9.018;2023-12-28T09:36:59;10.50;99.90
4556;DHT22;2290;48.674;9.018;2023-12-28T09:39:24;10.40;99.90
4556;DHT22;2290;48.674;9.018;2023-12-28T09:41:58;10.50;99.90
4556;DHT22;2290;48.674;9.018;2023-12-28T09:44:25;10.50;99.90
4556;DHT22;2290;48.674;9.018;2023-12-28T09:46:51;10.40;99.90
4556;DHT22;2290;48.674;9.018;2023-12-28T09:49:20;10.40;99.90
4556;DHT22;2290;48.674;9.018;2023-12-28T09:51:47;10.40;99.90
4556;DHT22;2290;48.674;9.018;2023-12-28T09:54:12;10.40;99.90
4556;DHT22;2290;48.674;9.018;2023-12-28T09:56:40;10.40;99.90
4556;DHT22;2290;48.674;9.018;2023-12-28T09:59:06;10.40;99.90
4556;DHT22;2290;48.674;9.018;2023-12-28T10:01:34;10.50;99.90
4556;DHT22;2290;48.674;9.018;2023-12-28T10:04:00;10.50;99.90
4556;DHT22;2290;48.674;9.018;2023-12-28T10:06:28;10.40;99.90
4556;DHT22;2290;48.674;9.018;2023-12-28T10:08:54;10.50;99.90
4556;DHT22;2290;48.674;9.018;2023-12-28T10:11:22;10.50;99.90
4556;DHT22;2290;48.674;9.018;2023-12-28T10:13:49;10.50;99.90
4556;DHT22;2290;48.674;9.018;2023-12-28T10:16:15;10.50;99.90
4556;DHT22;2290;48.674;9.018;2023-12-28T10:18:42;10.50;99.90
4556;DHT22;2290;48.674;9.018;2023-12-28T10:21:11;10.50;99.90
4556;DHT22;2290;48.674;9.018;2023-12-28T10:23:40;10.50;99.90
4556;DHT22;2290;48.674;9.018;2023-12-28T10:26:06;10.50;99.90
4556;DHT22;2290;48.674;9.018;2023-12-28T10:28:32;10.50;99.90
4556;DHT22;2290;48.674;9.018;2023-12-28T10:31:03;10.40;99.90
4556;DHT22;2290;48.674;9.018;2023-12-28T10:33:34;10.50;99.90
4556;DHT22;2290;48.674;9.018;2023-12-28T10:36:06;10.50;99.90
4556;DHT22;2290;48.674;9.018;2023-12-28T10:38:36;10.50;99.90
4556;DHT22;2290;48.674;9.018;2023-12-28T10:41:07;10.50;99.90
4556;DHT22;2290;48.674;9.018;2023-12-28T10:44:02;10.50;99.90
4556;DHT22;2290;48.674;9.018;2023-12-28T10:46:30;10.50;99.90
4556;DHT22;2290;48.674;9.018;2023-12-28T10:49:05;10.60;99.90
4556;DHT22;2290;48.674;9.018;2023-12-28T10:51:35;10.60;99.90
4556;DHT22;2290;48.674;9.018;2023-12-28T10:56:51;10.70;99.90
4556;DHT22;2290;48.674;9.018;2023-12-28T10:59:47;10.70;99.90
4556;DHT22;2290;48.674;9.018;2023-12-28T11:02:11;10.60;99.90
4556;DHT22;2290;48.674;9.018;2023-12-28T11:04:46;10.70;99.90
4556;DHT22;2290;48.674;9.018;2023-12-28T11:07:15;10.70;99.90
4556;DHT22;2290;48.674;9.018;2023-12-28T11:09:42;10.70;99.90
4556;DHT22;2290;48.674;9.018;2023-12-28T11:12:09;10.70;99.90
4556;DHT22;2290;48.674;9.018;2023-12-28T11:14:38;10.70;99.90
4556;DHT22;2290;48.674;9.018;2023-12-28T11:17:04;10.70;99.90
4556;DHT22;2290;48.674;9.018;2023-12-28T11:19:31;10.70;99.90
4556;DHT22;2290;48.674;9.018;2023-12-28T11:21:58;10.70;99.90
4556;DHT22;2290;48.674;9.018;2023-12-28T11:24:27;10.80;99.90
4556;DHT22;2290;48.674;9.018;2023-12-28T11:26:54;10.80;99.90
4556;DHT22;2290;48.674;9.018;2023-12-28T11:29:23;10.80;99.90
4556;DHT22;2290;48.674;9.018;2023-12-28T11:31:53;10.80;99.90
4556;DHT22;2290;48.674;9.018;2023-12-28T11:34:19;10.80;99.90
4556;DHT22;2290;48.674;9.018;2023-12-28T11:36:49;10.80;99.90
4556;DHT22;2290;48.674;9.018;2023-12-28T11:39:30;10.80;99.90
4556;DHT22;2290;48.674;9.018;2023-12-28T11:42:06;10.80;99.90
4556;DHT22;2290;48.674;9.018;2023-12-28T11:44:37;10.90;99.90
4556;DHT22;2290;48.674;9.018;2023-12-28T11:47:14;10.80;99.90
4556;DHT22;2290;48.674;9.018;2023-12-28T11:49:40;10.80;99.90
4556;DHT22;2290;48.674;9.018;2023-12-28T11:52:07;10.80;99.90
4556;DHT22;2290;48.674;9.018;2023-12-28T11:54:33;10.90;99.90
4556;DHT22;2290;48.674;9.018;2023-12-28T11:56:58;10.90;99.90
4556;DHT22;2290;48.674;9.018;2023-12-28T11:59:24;10.90;99.90
4556;DHT22;2290;48.674;9.018;2023-12-28T12:01:53;10.90;99.90
4556;DHT22;2290;48.674;9.018;2023-12-28T12:04:20;10.90;99.90
4556;DHT22;2290;48.674;9.018;2023-12-28T12:06:46;11.00;99.90
4556;DHT22;2290;48.674;9.018;2023-12-28T12:09:15;11.20;99.90
4556;DHT22;2290;48.674;9.018;2023-12-28T12:11:41;11.30;99.90
4556;DHT22;2290;48.674;9.018;2023-12-28T12:14:10;11.40;99.90
4556;DHT22;2290;48.674;9.018;2023-12-28T12:16:36;11.40;99.90
4556;DHT22;2290;48.674;9.018;2023-12-28T12:19:06;11.30;99.90
4556;DHT22;2290;48.674;9.018;2023-12-28T12:21:33;11.30;99.90
4556;DHT22;2290;48.674;9.018;2023-12-28T12:23:59;11.20;99.90
4556;DHT22;2290;48.674;9.018;2023-12-28T12:26:27;11.10;99.90
4556;DHT22;2290;48.674;9.018;2023-12-28T12:28:52;11.20;99.90
4556;DHT22;2290;48.674;9.018;2023-12-28T12:31:18;11.10;99.90
4556;DHT22;2290;48.674;9.018;2023-12-28T12:33:44;11.10;99.90
4556;DHT22;2290;48.674;9.018;2023-12-28T12:36:10;11.10;99.90
4556;DHT22;2290;48.674;9.018;2023-12-28T12:38:36;11.00;99.90
4556;DHT22;2290;48.674;9.018;2023-12-28T12:41:02;11.00;99.90
4556;DHT22;2290;48.674;9.018;2023-12-28T12:43:28;11.00;99.90
4556;DHT22;2290;48.674;9.018;2023-12-28T12:45:54;11.00;99.90
4556;DHT22;2290;48.674;9.018;2023-12-28T12:48:19;11.00;99.90
4556;DHT22;2290;48.674;9.018;2023-12-28T12:50:45;11.00;99.90
4556;DHT22;2290;48.674;9.018;2023-12-28T12:53:11;11.10;99.90
4556;DHT22;2290;48.674;9.018;2023-12-28T12:55:37;11.10;99.90
4556;DHT22;2290;48.674;9.018;2023-12-28T12:58:05;11.10;99.90
4556;DHT22;2290;48.674;9.018;2023-12-28T13:00:31;11.00;99.90
4556;DHT22;2290;48.674;9.018;2023-12-28T13:03:01;10.90;99.90
4556;DHT22;2290;48.674;9.018;2023-12-28T13:05:28;10.90;99.90
4556;DHT22;2290;48.674;9.018;2023-12-28T13:07:54;10.90;99.90
4556;DHT22;2290;48.674;9.018;2023-12-28T13:10:20;10.80;99.90
4556;DHT22;2290;48.674;9.018;2023-12-28T13:12:46;10.80;99.90
4556;DHT22;2290;48.674;9.018;2023-12-28T13:15:12;10.70;99.90
4556;DHT22;2290;48.674;9.018;2023-12-28T13:17:37;10.70;99.90
4556;DHT22;2290;48.674;9.018;2023-12-28T13:20:04;10.70;99.90
4556;DHT22;2290;48.674;9.018;2023-12-28T13:22:32;10.60;99.90
4556;DHT22;2290;48.674;9.018;2023-12-28T13:24:58;10.60;99.90
4556;DHT22;2290;48.674;9.018;2023-12-28T13:27:24;10.60;99.90
4556;DHT22;2290;48.674;9.018;2023-12-28T13:29:49;10.60;99.90
4556;DHT22;2290;48.674;9.018;2023-12-28T13:32:15;10.60;99.90
4556;DHT22;2290;48.674;9.018;2023-12-28T13:34:41;10.60;99.90
4556;DHT22;2290;48.674;9.018;2023-12-28T13:37:06;10.60;99.90
4556;DHT22;2290;48.674;9.018;2023-12-28T13:39:32;10.60;99.90
4556;DHT22;2290;48.674;9.018;2023-12-28T13:41:59;10.70;99.90
4556;DHT22;2290;48.674;9.018;2023-12-28T13:44:25;10.70;99.90
4556;DHT22;2290;48.674;9.018;2023-12-28T13:46:50;10.70;99.90
4556;DHT22;2290;48.674;9.018;2023-12-28T13:49:16;10.70;99.90
4556;DHT22;2290;48.674;9.018;2023-12-28T13:51:42;10.60;99.90
4556;DHT22;2290;48.674;9.018;2023-12-28T13:54:08;10.70;99.90
4556;DHT22;2290;48.674;9.018;2023-12-28T13:56:34;10.70;99.90
4556;DHT22;2290;48.674;9.018;2023-12-28T13:58:59;10.70;99.90
4556;DHT22;2290;48.674;9.018;2023-12-28T14:01:25;10.60;99.90
4556;DHT22;2290;48.674;9.018;2023-12-28T14:03:51;10.60;99.90
4556;DHT22;2290;48.674;9.018;2023-12-28T14:06:17;10.50;99.90
4556;DHT22;2290;48.674;9.018;2023-12-28T14:08:43;10.40;99.90
4556;DHT22;2290;48.674;9.018;2023-12-28T14:11:08;10.40;99.90
4556;DHT22;2290;48.674;9.018;2023-12-28T14:13:35;10.40;99.90
4556;DHT22;2290;48.674;9.018;2023-12-28T14:16:00;10.40;99.90
4556;DHT22;2290;48.674;9.018;2023-12-28T14:18:26;10.30;99.90
4556;DHT22;2290;48.674;9.018;2023-12-28T14:20:51;10.30;99.90
4556;DHT22;2290;48.674;9.018;2023-12-28T14:23:18;10.20;99.90
4556;DHT22;2290;48.674;9.018;2023-12-28T14:25:45;10.20;99.90
4556;DHT22;2290;48.674;9.018;2023-12-28T14:28:17;10.10;99.90
4556;DHT22;2290;48.674;9.018;2023-12-28T14:30:43;10.10;99.90
4556;DHT22;2290;48.674;9.018;2023-12-28T14:33:09;10.10;99.90
4556;DHT22;2290;48.674;9.018;2023-12-28T14:35:36;10.10;99.90
4556;DHT22;2290;48.674;9.018;2023-12-28T14:38:04;10.00;99.90
4556;DHT22;2290;48.674;9.018;2023-12-28T14:40:30;10.00;99.90
4556;DHT22;2290;48.674;9.018;2023-12-28T14:42:56;10.00;99.90
4556;DHT22;2290;48.674;9.018;2023-12-28T14:45:22;10.00;99.90
4556;DHT22;2290;48.674;9.018;2023-12-28T14:47:47;10.00;99.90
4556;DHT22;2290;48.674;9.018;2023-12-28T14:50:13;10.00;99.90
4556;DHT22;2290;48.674;9.018;2023-12-28T14:52:38;9.90;99.90
4556;DHT22;2290;48.674;9.018;2023-12-28T14:55:08;9.90;99.90
4556;DHT22;2290;48.674;9.018;2023-12-28T14:57:33;9.90;99.90
4556;DHT22;2290;48.674;9.018;2023-12-28T14:59:59;9.90;99.90
4556;DHT22;2290;48.674;9.018;2023-12-28T15:02:24;9.90;99.90
4556;DHT22;2290;48.674;9.018;2023-12-28T15:04:50;9.90;99.90
4556;DHT22;2290;48.674;9.018;2023-12-28T15:07:15;9.90;99.90
4556;DHT22;2290;48.674;9.018;2023-12-28T15:09:42;9.80;99.90
4556;DHT22;2290;48.674;9.018;2023-12-28T15:12:08;9.80;99.90
4556;DHT22;2290;48.674;9.018;2023-12-28T15:14:33;9.80;99.90
4556;DHT22;2290;48.674;9.018;2023-12-28T15:16:59;9.80;99.90
4556;DHT22;2290;48.674;9.018;2023-12-28T15:19:25;9.90;99.90
4556;DHT22;2290;48.674;9.018;2023-12-28T15:21:52;9.90;99.90
4556;DHT22;2290;48.674;9.018;2023-12-28T15:24:18;9.80;99.90
4556;DHT22;2290;48.674;9.018;2023-12-28T15:26:44;9.70;99.90
4556;DHT22;2290;48.674;9.018;2023-12-28T15:29:09;9.70;99.90
4556;DHT22;2290;48.674;9.018;2023-12-28T15:31:35;9.70;99.90
4556;DHT22;2290;48.674;9.018;2023-12-28T15:34:01;9.70;99.90
4556;DHT22;2290;48.674;9.018;2023-12-28T15:36:27;9.60;99.90
4556;DHT22;2290;48.674;9.018;2023-12-28T15:38:53;9.60;99.90
4556;DHT22;2290;48.674;9.018;2023-12-28T15:41:18;9.60;99.90
4556;DHT22;2290;48.674;9.018;2023-12-28T15:43:44;9.60;99.90
4556;DHT22;2290;48.674;9.018;2023-12-28T15:46:11;9.70;99.90
4556;DHT22;2290;48.674;9.018;2023-12-28T15:48:36;9.70;99.90
4556;DHT22;2290;48.674;9.018;2023-12-28T15:51:03;9.70;99.90
4556;DHT22;2290;48.674;9.018;2023-12-28T15:53:29;9.60;99.90
4556;DHT22;2290;48.674;9.018;2023-12-28T15:55:54;9.60;99.90
4556;DHT22;2290;48.674;9.018;2023-12-28T15:58:20;9.60;99.90
4556;DHT22;2290;48.674;9.018;2023-12-28T16:00:48;9.60;99.90
4556;DHT22;2290;48.674;9.018;2023-12-28T16:03:14;9.60;99.90
4556;DHT22;2290;48.674;9.018;2023-12-28T16:05:39;9.60;99.90
4556;DHT22;2290;48.674;9.018;2023-12-28T16:08:05;9.60;99.90
4556;DHT22;2290;48.674;9.018;2023-12-28T16:10:31;9.50;99.90
4556;DHT22;2290;48.674;9.018;2023-12-28T16:12:56;9.50;99.90
4556;DHT22;2290;48.674;9.018;2023-12-28T16:15:22;9.60;99.90
4556;DHT22;2290;48.674;9.018;2023-12-28T16:17:50;9.50;99.90
4556;DHT22;2290;48.674;9.018;2023-12-28T16:20:25;9.50;99.90
4556;DHT22;2290;48.674;9.018;2023-12-28T16:22:51;9.50;99.90
4556;DHT22;2290;48.674;9.018;2023-12-28T16:25:16;9.40;99.90